Time;durP1;ratioP1;P1;durP2;ratioP2;P2;SDS_P1;SDS_P2;PMS_P1;PMS_P2;Temp;Humidity;BMP_temperature;BMP_pressure;BME280_temperature;BME280_humidity;BME280_pressure;Samples;Min_cycle;Max_cycle;Signal;HPM_P1;HPM_P2
2021/01/28 00:00:18;;;;;;;58.83;29.10;;;7.20;83.70;;;;;;5079962;28;20519;-74
2021/01/28 00:02:43;;;;;;;59.77;29.40;;;7.10;84.40;;;;;;5073866;28;20512;-71
2021/01/28 00:05:09;;;;;;;64.07;28.37;;;7.10;85.60;;;;;;5059643;28;20385;-73
2021/01/28 00:07:35;;;;;;;59.80;28.30;;;7.10;84.70;;;;;;5053599;28;20396;-73
2021/01/28 00:10:01;;;;;;;61.95;29.52;;;7.10;84.70;;;;;;5059756;28;20409;-73
2021/01/28 00:12:26;;;;;;;57.40;29.03;;;7.10;85.30;;;;;;5073222;28;20445;-72
2021/01/28 00:14:52;;;;;;;54.73;27.83;;;7.10;84.60;;;;;;5072492;28;20433;-72
2021/01/28 00:17:18;;;;;;;58.60;28.65;;;7.00;85.70;;;;;;5072474;28;20390;-72
2021/01/28 00:19:43;;;;;;;54.50;27.30;;;7.00;86.20;;;;;;5077226;28;20396;-75
2021/01/28 00:22:09;;;;;;;52.13;26.60;;;7.10;85.40;;;;;;5067920;28;20455;-74
2021/01/28 00:24:34;;;;;;;57.83;27.00;;;7.10;85.60;;;;;;5056264;28;20394;-74
2021/01/28 00:27:00;;;;;;;55.80;28.33;;;7.10;85.60;;;;;;5056770;28;20397;-73
2021/01/28 00:29:25;;;;;;;62.87;27.57;;;7.10;85.20;;;;;;5054592;28;20382;-74
2021/01/28 00:31:52;;;;;;;57.10;26.00;;;7.10;84.90;;;;;;5055043;28;20393;-74
2021/01/28 00:34:17;;;;;;;56.42;26.65;;;7.20;83.90;;;;;;5053624;28;20392;-73
2021/01/28 00:36:43;;;;;;;55.42;26.98;;;7.10;84.60;;;;;;5068733;28;20482;-72
2021/01/28 00:39:08;;;;;;;57.08;28.42;;;7.10;85.70;;;;;;5051720;28;20401;-71
2021/01/28 00:41:34;;;;;;;55.85;27.75;;;7.10;85.80;;;;;;5050256;28;20405;-72
2021/01/28 00:43:59;;;;;;;61.83;27.52;;;7.20;84.80;;;;;;5050621;28;20925;-73
2021/01/28 00:46:25;;;;;;;59.03;27.98;;;7.20;84.40;;;;;;5050344;28;20893;-74
2021/01/28 00:48:51;;;;;;;66.95;28.88;;;7.10;84.90;;;;;;5048764;28;20416;-71
2021/01/28 00:51:17;;;;;;;63.90;27.38;;;7.10;85.60;;;;;;5048875;28;20390;-72
2021/01/28 00:53:43;;;;;;;62.10;27.38;;;7.20;86.20;;;;;;5050265;28;20406;-72
2021/01/28 00:56:09;;;;;;;58.80;26.70;;;7.00;87.40;;;;;;5050377;28;20390;-73
2021/01/28 00:58:34;;;;;;;54.40;27.17;;;7.20;88.00;;;;;;5050241;28;20386;-73
2021/01/28 01:01:01;;;;;;;66.60;27.43;;;7.20;85.20;;;;;;5052269;28;20404;-74
2021/01/28 01:03:28;;;;;;;52.75;26.20;;;7.10;86.50;;;;;;5059183;28;20386;-72
2021/01/28 01:05:54;;;;;;;61.10;27.13;;;7.10;88.50;;;;;;5050078;28;20385;-73
2021/01/28 01:08:23;;;;;;;60.78;26.40;;;7.10;89.20;;;;;;5050231;28;20389;-74
2021/01/28 01:10:52;;;;;;;59.25;26.40;;;7.00;90.40;;;;;;5049846;28;20386;-73
2021/01/28 01:13:21;;;;;;;58.50;24.73;;;7.10;88.20;;;;;;5049042;28;20801;-73
2021/01/28 01:15:47;;;;;;;55.97;24.20;;;7.20;87.00;;;;;;5050150;28;20401;-72
2021/01/28 01:18:17;;;;;;;52.70;25.17;;;7.10;85.90;;;;;;5049699;28;20769;-73
2021/01/28 01:20:42;;;;;;;55.85;24.30;;;7.10;88.10;;;;;;5049763;28;20405;-73
2021/01/28 01:23:08;;;;;;;50.90;25.08;;;7.10;86.30;;;;;;5050091;28;20440;-74
2021/01/28 01:25:34;;;;;;;56.67;25.30;;;7.10;86.60;;;;;;5050056;28;20390;-74
2021/01/28 01:28:00;;;;;;;57.40;25.17;;;7.10;86.30;;;;;;5050087;28;20389;-73
2021/01/28 01:30:26;;;;;;;47.55;23.40;;;7.00;87.50;;;;;;5066168;28;20848;-74
2021/01/28 01:32:52;;;;;;;53.80;24.15;;;7.10;87.00;;;;;;5069912;28;20475;-73
2021/01/28 01:35:20;;;;;;;53.95;23.95;;;7.10;86.70;;;;;;5072904;28;20379;-73
2021/01/28 01:37:46;;;;;;;48.37;23.00;;;7.10;85.80;;;;;;5073593;28;20885;-73
2021/01/28 01:40:21;;;;;;;54.10;24.25;;;7.10;85.40;;;;;;5073259;28;20403;-75
2021/01/28 01:42:47;;;;;;;57.92;25.10;;;7.20;84.40;;;;;;5065682;28;20479;-73
2021/01/28 01:45:15;;;;;;;48.45;23.42;;;7.20;83.20;;;;;;5053541;28;20386;-73
2021/01/28 01:47:48;;;;;;;48.42;23.58;;;7.10;84.10;;;;;;5053705;28;20384;-74
2021/01/28 01:50:31;;;;;;;51.50;24.48;;;7.10;84.50;;;;;;5053121;28;20386;-74
2021/01/28 01:52:58;;;;;;;49.35;24.52;;;7.10;84.90;;;;;;5053332;28;20485;-74
2021/01/28 01:55:24;;;;;;;46.40;23.65;;;7.10;85.70;;;;;;5053397;28;20397;-74
2021/01/28 01:57:50;;;;;;;43.72;23.33;;;7.00;85.80;;;;;;5053292;28;20396;-74
2021/01/28 02:00:20;;;;;;;41.20;23.05;;;7.10;85.90;;;;;;5052986;28;20969;-73
2021/01/28 02:02:51;;;;;;;46.60;22.90;;;7.10;86.00;;;;;;5061437;28;20453;-74
2021/01/28 02:05:33;;;;;;;46.75;23.63;;;7.10;85.30;;;;;;5059340;28;20393;-73
2021/01/28 02:07:59;;;;;;;51.35;22.42;;;7.10;86.10;;;;;;5056356;28;20387;-73
2021/01/28 02:10:25;;;;;;;46.55;23.10;;;7.10;85.80;;;;;;5056903;28;20419;-72
2021/01/28 02:12:52;;;;;;;47.97;23.50;;;7.10;85.90;;;;;;5057209;28;20794;-73
2021/01/28 02:15:18;;;;;;;44.03;22.92;;;7.00;86.60;;;;;;5057243;28;20390;-72
2021/01/28 02:17:49;;;;;;;49.55;24.30;;;6.90;87.50;;;;;;5057175;28;20390;-73
2021/01/28 02:20:41;;;;;;;45.55;24.73;;;7.10;86.90;;;;;;5056485;28;20428;-73
2021/01/28 02:23:35;;;;;;;48.00;24.70;;;6.90;87.40;;;;;;5055948;28;20376;-74
2021/01/28 02:26:01;;;;;;;53.63;24.17;;;6.90;88.50;;;;;;5055306;28;20518;-72
2021/01/28 02:28:27;;;;;;;46.33;23.60;;;6.90;89.30;;;;;;5056227;28;20911;-73
2021/01/28 02:30:57;;;;;;;50.30;25.80;;;7.00;88.60;;;;;;5059413;28;20393;-76
2021/01/28 02:33:54;;;;;;;45.47;24.00;;;7.00;87.70;;;;;;5061825;28;20390;-73
2021/01/28 02:36:26;;;;;;;47.47;23.73;;;6.90;88.20;;;;;;5055582;28;20490;-74
2021/01/28 02:38:52;;;;;;;42.93;22.70;;;7.00;87.90;;;;;;5074047;28;20876;-74
2021/01/28 02:41:18;;;;;;;42.33;23.53;;;6.90;88.20;;;;;;5070886;28;20407;-72
2021/01/28 02:43:43;;;;;;;44.93;23.03;;;6.90;88.70;;;;;;5057149;28;20394;-75
2021/01/28 02:46:13;;;;;;;44.73;23.37;;;6.90;88.70;;;;;;5057088;28;20472;-74
2021/01/28 02:48:39;;;;;;;41.10;22.92;;;6.90;89.70;;;;;;5057309;28;20416;-73
2021/01/28 02:51:07;;;;;;;44.03;23.83;;;6.90;89.00;;;;;;5057945;28;20426;-73
2021/01/28 02:53:42;;;;;;;48.28;23.17;;;6.90;89.50;;;;;;5052266;28;20911;-72
2021/01/28 02:56:08;;;;;;;46.55;23.23;;;6.90;90.10;;;;;;5052156;28;20464;-71
2021/01/28 02:58:34;;;;;;;51.80;23.60;;;6.90;90.10;;;;;;5052170;28;20385;-76
2021/01/28 03:01:00;;;;;;;40.10;21.80;;;7.00;89.00;;;;;;5051987;28;20921;-75
2021/01/28 03:03:26;;;;;;;47.40;23.10;;;7.00;88.30;;;;;;5060886;28;20811;-73
2021/01/28 03:05:52;;;;;;;50.10;24.63;;;7.00;88.60;;;;;;5057396;28;20394;-74
2021/01/28 03:08:19;;;;;;;55.55;24.63;;;6.90;89.80;;;;;;5052418;28;20484;-74
2021/01/28 03:10:44;;;;;;;45.20;22.97;;;6.90;90.80;;;;;;5064825;28;20781;-72
2021/01/28 03:13:11;;;;;;;52.53;24.08;;;6.90;91.20;;;;;;5072920;28;20391;-74
2021/01/28 03:15:36;;;;;;;53.15;25.52;;;6.80;91.10;;;;;;5072877;28;20383;-72
2021/01/28 03:18:03;;;;;;;45.63;23.27;;;6.80;92.10;;;;;;5066453;28;20934;-73
2021/01/28 03:20:29;;;;;;;44.45;22.77;;;6.80;92.20;;;;;;5051647;28;20397;-73
2021/01/28 03:22:57;;;;;;;46.83;23.25;;;6.80;92.40;;;;;;5051817;28;20393;-75
2021/01/28 03:25:23;;;;;;;51.03;23.20;;;6.80;93.20;;;;;;5054092;28;20805;-73
2021/01/28 03:27:49;;;;;;;44.08;22.42;;;6.70;93.90;;;;;;5051770;28;20476;-73
2021/01/28 03:30:22;;;;;;;45.13;23.67;;;6.80;94.70;;;;;;5051684;28;20497;-75
2021/01/28 03:32:48;;;;;;;42.38;22.38;;;6.80;94.60;;;;;;5053455;28;20751;-73
2021/01/28 03:35:15;;;;;;;44.47;22.10;;;6.80;95.50;;;;;;5059017;28;20858;-74
2021/01/28 03:37:41;;;;;;;38.33;20.98;;;6.70;96.00;;;;;;5073702;28;20728;-73
2021/01/28 03:40:07;;;;;;;32.37;19.33;;;6.80;96.00;;;;;;5073142;28;20402;-74
2021/01/28 03:42:33;;;;;;;40.30;20.38;;;6.70;95.40;;;;;;5072052;28;20379;-73
2021/01/28 03:44:58;;;;;;;41.93;20.50;;;6.70;95.70;;;;;;5072352;28;20865;-72
2021/01/28 03:47:24;;;;;;;37.43;19.43;;;6.70;96.00;;;;;;5053852;28;20766;-72
2021/01/28 03:49:50;;;;;;;37.05;19.75;;;6.60;96.00;;;;;;5051016;28;20382;-74
2021/01/28 03:52:16;;;;;;;35.95;19.60;;;6.60;96.20;;;;;;5051156;28;20388;-73
2021/01/28 03:54:41;;;;;;;36.92;20.10;;;6.50;96.70;;;;;;5051216;28;20389;-72
2021/01/28 03:57:07;;;;;;;43.67;19.00;;;6.50;97.30;;;;;;5050265;28;20432;-72
2021/01/28 03:59:33;;;;;;;42.63;19.43;;;6.60;95.30;;;;;;5050127;28;20901;-73
2021/01/28 04:01:58;;;;;;;33.73;17.97;;;6.50;94.80;;;;;;5050648;28;20413;-73
2021/01/28 04:04:24;;;;;;;40.10;19.23;;;6.50;95.50;;;;;;5059823;28;20425;-73
2021/01/28 04:06:49;;;;;;;35.03;18.70;;;6.50;95.10;;;;;;5050867;28;20472;-72
2021/01/28 04:09:15;;;;;;;32.70;18.87;;;6.50;94.90;;;;;;5051266;28;20388;-74
2021/01/28 04:11:41;;;;;;;33.03;18.83;;;6.60;94.40;;;;;;5052146;28;20495;-74
2021/01/28 04:14:06;;;;;;;37.90;19.63;;;6.60;95.00;;;;;;5054412;28;20394;-74
2021/01/28 04:16:32;;;;;;;28.95;18.20;;;6.50;95.00;;;;;;5051399;28;20432;-72
2021/01/28 04:18:58;;;;;;;31.05;18.83;;;6.50;95.60;;;;;;5052957;28;20408;-75
2021/01/28 04:21:23;;;;;;;32.45;17.80;;;6.40;95.30;;;;;;5055362;28;20762;-73
2021/01/28 04:23:49;;;;;;;36.30;19.30;;;6.40;95.60;;;;;;5055279;28;20389;-72
2021/01/28 04:26:14;;;;;;;37.07;18.57;;;6.40;95.90;;;;;;5054012;28;20491;-72
2021/01/28 04:28:40;;;;;;;38.50;19.10;;;6.40;96.90;;;;;;5051617;28;20397;-75
2021/01/28 04:31:06;;;;;;;31.37;18.97;;;6.40;96.80;;;;;;5051577;28;20453;-75
2021/01/28 04:33:32;;;;;;;32.08;19.00;;;6.40;96.30;;;;;;5052272;28;20878;-75
2021/01/28 04:35:58;;;;;;;34.10;18.20;;;6.30;97.10;;;;;;5063279;28;20426;-75
2021/01/28 04:38:24;;;;;;;30.50;18.23;;;6.30;97.60;;;;;;5072148;28;20415;-75
2021/01/28 04:40:52;;;;;;;29.98;18.80;;;6.30;97.20;;;;;;5065148;28;20435;-73
2021/01/28 04:43:29;;;;;;;33.88;17.65;;;6.30;97.50;;;;;;5051665;28;20458;-73
2021/01/28 04:46:02;;;;;;;36.17;17.80;;;6.30;97.60;;;;;;5050966;28;20778;-73
2021/01/28 04:48:30;;;;;;;33.03;18.48;;;6.30;97.00;;;;;;5050797;28;20439;-75
2021/01/28 04:50:57;;;;;;;32.15;17.30;;;6.20;97.00;;;;;;5050953;28;20390;-73
2021/01/28 04:53:31;;;;;;;29.40;17.90;;;6.20;97.40;;;;;;5053332;28;20381;-73
2021/01/28 04:55:57;;;;;;;30.05;17.42;;;6.30;98.10;;;;;;5050396;28;20427;-73
2021/01/28 04:58:23;;;;;;;30.58;17.98;;;6.20;96.70;;;;;;5050178;28;20389;-73
2021/01/28 05:00:48;;;;;;;26.35;16.95;;;6.10;97.60;;;;;;5050231;28;20480;-72
2021/01/28 05:03:24;;;;;;;27.95;16.65;;;6.20;98.10;;;;;;5059167;28;20383;-72
2021/01/28 05:05:52;;;;;;;25.17;15.50;;;6.20;97.90;;;;;;5051567;28;20547;-73
2021/01/28 05:08:21;;;;;;;27.13;15.23;;;6.20;97.50;;;;;;5053390;28;20492;-73
2021/01/28 05:10:52;;;;;;;26.00;15.25;;;6.30;95.20;;;;;;5071962;28;20390;-74
2021/01/28 05:13:33;;;;;;;28.30;16.10;;;6.20;95.90;;;;;;5079483;28;20403;-72
2021/01/28 05:16:16;;;;;;;22.67;14.93;;;6.10;97.80;;;;;;5079467;28;20387;-73
2021/01/28 05:18:42;;;;;;;17.33;12.63;;;6.10;98.40;;;;;;5078091;28;20403;-72
2021/01/28 05:21:21;;;;;;;19.50;13.47;;;6.10;98.90;;;;;;5062559;28;20423;-73
2021/01/28 05:23:47;;;;;;;21.10;13.00;;;6.10;98.70;;;;;;5057482;28;20394;-73
2021/01/28 05:26:36;;;;;;;16.25;12.25;;;6.10;99.00;;;;;;5056842;28;20377;-73
2021/01/28 05:29:27;;;;;;;18.67;11.90;;;6.20;98.60;;;;;;5057310;28;20377;-74
2021/01/28 05:31:57;;;;;;;13.88;9.82;;;6.20;97.10;;;;;;5058044;28;20399;-72
2021/01/28 05:34:26;;;;;;;13.30;10.27;;;6.30;95.40;;;;;;5061292;28;20400;-73
2021/01/28 05:36:54;;;;;;;14.65;10.30;;;6.20;94.50;;;;;;5077458;28;20380;-72
2021/01/28 05:39:22;;;;;;;14.55;9.95;;;6.10;95.00;;;;;;5080012;28;20387;-74
2021/01/28 05:41:50;;;;;;;12.27;9.35;;;6.10;95.90;;;;;;5079541;28;20411;-74
2021/01/28 05:44:20;;;;;;;11.75;8.93;;;6.00;96.00;;;;;;5076914;28;20395;-72
2021/01/28 05:47:09;;;;;;;11.70;9.20;;;6.10;95.30;;;;;;5069451;28;20401;-72
2021/01/28 05:49:37;;;;;;;12.30;9.50;;;6.10;94.60;;;;;;5053230;28;20886;-74
2021/01/28 05:52:26;;;;;;;14.30;10.50;;;6.10;95.90;;;;;;5053294;28;20389;-74
2021/01/28 05:55:19;;;;;;;11.25;9.38;;;6.00;96.90;;;;;;5053360;28;20479;-74
2021/01/28 05:57:52;;;;;;;14.20;9.73;;;6.00;96.60;;;;;;5058927;28;20406;-73
2021/01/28 06:00:40;;;;;;;12.98;9.45;;;6.00;95.30;;;;;;5060554;28;20401;-75
2021/01/28 06:03:14;;;;;;;14.60;10.20;;;6.00;95.10;;;;;;5070055;28;20371;-74
2021/01/28 06:06:00;;;;;;;14.15;10.32;;;6.00;95.60;;;;;;5080300;28;20386;-73
2021/01/28 06:08:29;;;;;;;12.23;9.70;;;5.90;96.00;;;;;;5080314;28;20383;-73
2021/01/28 06:11:25;;;;;;;12.48;9.18;;;6.00;95.80;;;;;;5076284;28;20474;-73
2021/01/28 06:14:37;;;;;;;14.57;9.40;;;6.10;94.50;;;;;;5079036;28;20865;-73
2021/01/28 06:17:33;;;;;;;13.45;8.73;;;6.10;92.40;;;;;;5079168;28;20907;-74
2021/01/28 06:20:11;;;;;;;12.15;9.65;;;6.00;93.80;;;;;;5075286;28;20441;-74
2021/01/28 06:22:47;;;;;;;11.07;9.27;;;6.00;95.50;;;;;;5074627;28;20390;-74
2021/01/28 06:25:16;;;;;;;9.87;8.70;;;6.00;93.50;;;;;;5052243;28;20396;-72
2021/01/28 06:27:51;;;;;;;13.48;9.50;;;6.10;93.80;;;;;;5052316;28;20384;-72
2021/01/28 06:30:49;;;;;;;12.70;9.00;;;6.10;92.00;;;;;;5052131;28;20403;-73
2021/01/28 06:33:21;;;;;;;10.82;8.95;;;6.10;93.30;;;;;;5018600;28;20451;-74
2021/01/28 06:36:08;;;;;;;11.50;9.27;;;6.10;91.90;;;;;;5062330;28;20376;-74
2021/01/28 06:38:55;;;;;;;11.15;8.40;;;6.10;92.00;;;;;;5053248;28;20954;-74
2021/01/28 06:41:29;;;;;;;13.00;9.37;;;6.00;91.90;;;;;;5054080;28;20786;-75
2021/01/28 06:44:17;;;;;;;9.90;8.40;;;6.00;91.70;;;;;;5052843;28;20401;-73
2021/01/28 06:46:42;;;;;;;11.75;8.88;;;6.10;91.50;;;;;;5053123;28;20838;-76
2021/01/28 06:49:14;;;;;;;10.13;8.50;;;6.00;92.50;;;;;;5052650;28;20374;-75
2021/01/28 06:51:48;;;;;;;12.73;8.88;;;6.10;91.60;;;;;;5055038;28;20397;-74
2021/01/28 06:54:31;;;;;;;10.80;8.88;;;6.00;92.10;;;;;;5053355;28;20397;-74
2021/01/28 06:57:29;;;;;;;10.07;8.40;;;6.20;89.80;;;;;;5052951;28;20420;-75
2021/01/28 07:00:02;;;;;;;12.52;8.68;;;6.10;90.00;;;;;;5046998;28;20569;-73
2021/01/28 07:02:36;;;;;;;10.07;8.55;;;6.10;90.60;;;;;;5061800;28;20385;-74
2021/01/28 07:05:01;;;;;;;11.15;8.70;;;6.10;91.60;;;;;;5058370;28;20381;-74
2021/01/28 07:07:30;;;;;;;10.23;7.85;;;6.00;91.00;;;;;;5052379;28;20404;-74
2021/01/28 07:10:10;;;;;;;12.18;9.18;;;6.20;91.60;;;;;;5057251;28;20517;-75
2021/01/28 07:12:46;;;;;;;10.85;8.35;;;6.20;87.50;;;;;;5072899;28;20778;-74
2021/01/28 07:15:13;;;;;;;10.75;8.30;;;6.10;89.00;;;;;;5071234;28;20383;-75
2021/01/28 07:17:56;;;;;;;10.57;8.63;;;6.00;90.40;;;;;;5072537;28;20390;-75
2021/01/28 07:20:32;;;;;;;11.25;8.10;;;6.10;90.40;;;;;;5056654;28;20451;-73
2021/01/28 07:23:24;;;;;;;11.15;8.80;;;6.00;91.00;;;;;;5064117;28;20945;-74
2021/01/28 07:25:53;;;;;;;10.35;7.80;;;6.10;88.40;;;;;;5051203;28;20369;-73
2021/01/28 07:28:18;;;;;;;10.25;7.88;;;6.10;87.70;;;;;;5051160;28;20385;-72
2021/01/28 07:30:48;;;;;;;9.07;7.15;;;6.10;88.50;;;;;;5051158;28;20460;-72
2021/01/28 07:33:23;;;;;;;9.70;8.30;;;6.10;86.60;;;;;;5052319;28;20591;-73
2021/01/28 07:35:59;;;;;;;9.05;7.25;;;6.00;87.70;;;;;;5054522;28;20397;-73
2021/01/28 07:38:28;;;;;;;12.35;8.25;;;6.00;87.70;;;;;;5054330;28;20550;-76
2021/01/28 07:41:18;;;;;;;11.05;8.18;;;6.00;87.90;;;;;;5053494;28;20413;-74
2021/01/28 07:43:46;;;;;;;10.18;7.97;;;6.00;88.00;;;;;;5053892;28;20480;-76
2021/01/28 07:46:23;;;;;;;12.30;8.45;;;5.90;90.10;;;;;;5056533;28;20394;-72
2021/01/28 07:49:09;;;;;;;11.63;7.90;;;5.90;91.00;;;;;;5054214;28;20377;-75
2021/01/28 07:51:38;;;;;;;11.10;7.57;;;6.00;91.00;;;;;;5054017;28;20446;-73
2021/01/28 07:54:19;;;;;;;9.68;7.97;;;6.10;89.50;;;;;;5055950;28;20452;-73
2021/01/28 07:56:47;;;;;;;10.60;7.40;;;6.10;86.30;;;;;;5060756;28;20439;-74
2021/01/28 07:59:33;;;;;;;11.02;7.30;;;6.00;87.20;;;;;;5061532;28;20381;-73
2021/01/28 08:02:26;;;;;;;10.95;7.63;;;6.00;87.70;;;;;;5058578;28;20397;-73
2021/01/28 08:05:03;;;;;;;10.35;7.93;;;5.90;88.20;;;;;;5072091;28;20420;-74
2021/01/28 08:07:43;;;;;;;9.63;7.70;;;6.00;88.70;;;;;;5060155;28;20884;-73
2021/01/28 08:10:31;;;;;;;9.57;7.85;;;6.00;90.00;;;;;;5072705;28;20887;-73
2021/01/28 08:13:22;;;;;;;10.18;7.70;;;5.90;90.40;;;;;;5064152;28;20756;-73
2021/01/28 08:15:56;;;;;;;11.60;8.03;;;6.00;89.50;;;;;;5059081;28;20490;-74
2021/01/28 08:18:39;;;;;;;9.52;7.20;;;5.90;91.00;;;;;;5053838;28;20483;-72
2021/01/28 08:21:18;;;;;;;8.48;6.80;;;6.10;87.90;;;;;;5069913;28;20423;-72
2021/01/28 08:23:44;;;;;;;9.07;6.65;;;6.20;88.00;;;;;;5064504;28;20390;-71
2021/01/28 08:26:13;;;;;;;11.55;7.43;;;6.30;84.50;;;;;;5069734;28;20399;-73
2021/01/28 08:28:41;;;;;;;10.68;7.10;;;6.20;85.90;;;;;;5054475;28;20385;-73
2021/01/28 08:31:31;;;;;;;8.10;6.65;;;6.10;86.20;;;;;;5056593;28;20470;-72
2021/01/28 08:33:59;;;;;;;7.47;6.43;;;6.10;88.10;;;;;;5056023;28;20382;-73
2021/01/28 08:36:31;;;;;;;6.25;5.65;;;6.10;87.50;;;;;;5073267;28;20400;-72
2021/01/28 08:39:12;;;;;;;9.50;7.05;;;6.10;85.60;;;;;;5053505;28;20431;-74
2021/01/28 08:41:39;;;;;;;6.55;5.50;;;6.20;86.10;;;;;;5053756;28;20408;-74
2021/01/28 08:44:07;;;;;;;8.23;6.38;;;6.10;85.10;;;;;;5069567;28;20430;-74
2021/01/28 08:46:34;;;;;;;7.60;5.40;;;6.20;85.70;;;;;;5068177;28;20395;-72
2021/01/28 08:49:20;;;;;;;6.72;5.72;;;6.10;86.30;;;;;;5059916;28;20394;-73
2021/01/28 08:51:58;;;;;;;9.00;6.30;;;6.10;86.40;;;;;;5050012;28;20385;-75
2021/01/28 08:54:28;;;;;;;8.50;6.30;;;6.10;86.80;;;;;;5049874;28;20382;-73
2021/01/28 08:56:57;;;;;;;8.20;5.80;;;6.00;87.40;;;;;;5070097;28;20456;-75
2021/01/28 08:59:30;;;;;;;9.30;6.28;;;6.00;88.30;;;;;;5074471;28;20439;-73
2021/01/28 09:01:57;;;;;;;7.07;5.70;;;6.00;89.50;;;;;;5060723;28;20436;-73
2021/01/28 09:04:28;;;;;;;6.82;6.10;;;6.10;88.90;;;;;;5060510;28;20481;-74
2021/01/28 09:06:54;;;;;;;8.80;6.13;;;6.20;87.80;;;;;;5052283;28;20435;-72
2021/01/28 09:09:34;;;;;;;6.57;5.80;;;6.40;86.70;;;;;;5063658;28;20457;-72
2021/01/28 09:12:23;;;;;;;7.00;5.83;;;6.30;85.10;;;;;;5059865;28;20836;-72
2021/01/28 09:14:48;;;;;;;10.98;9.15;;;6.30;85.60;;;;;;5057138;28;20407;-74
2021/01/28 09:17:24;;;;;;;7.40;5.80;;;6.30;85.10;;;;;;5058850;28;20405;-73
2021/01/28 09:19:59;;;;;;;5.60;4.90;;;6.20;86.00;;;;;;5052030;28;20492;-73
2021/01/28 09:22:33;;;;;;;6.43;5.50;;;6.20;86.90;;;;;;5050167;28;20389;-73
2021/01/28 09:25:01;;;;;;;6.20;5.32;;;6.20;86.20;;;;;;5049620;28;20413;-72
2021/01/28 09:27:33;;;;;;;7.22;5.50;;;6.20;86.60;;;;;;5049312;28;20373;-72
2021/01/28 09:30:23;;;;;;;5.15;4.50;;;6.20;86.30;;;;;;5049676;28;20955;-74
2021/01/28 09:32:50;;;;;;;6.18;5.20;;;6.30;84.20;;;;;;5055428;28;20399;-73
2021/01/28 09:35:23;;;;;;;7.03;4.80;;;6.30;84.20;;;;;;5061879;28;20480;-72
2021/01/28 09:38:06;;;;;;;6.22;5.03;;;6.40;83.80;;;;;;5066829;28;20748;-72
2021/01/28 09:40:41;;;;;;;5.40;4.90;;;6.40;84.40;;;;;;5059794;28;20486;-73
2021/01/28 09:43:38;;;;;;;5.75;4.97;;;6.40;83.50;;;;;;5049385;28;20870;-72
2021/01/28 09:46:19;;;;;;;4.40;4.00;;;6.40;84.30;;;;;;5045373;28;20645;-72
2021/01/28 09:48:45;;;;;;;5.00;4.47;;;6.50;83.70;;;;;;5068809;28;20379;-72
2021/01/28 09:51:14;;;;;;;6.97;4.00;;;6.50;84.50;;;;;;5062555;28;20523;-72
2021/01/28 09:54:03;;;;;;;4.57;4.10;;;6.50;83.70;;;;;;5048328;28;20451;-72
2021/01/28 09:56:29;;;;;;;4.07;3.63;;;6.40;83.40;;;;;;5059249;28;20415;-72
2021/01/28 09:58:54;;;;;;;5.18;3.35;;;6.50;83.30;;;;;;5066898;28;20400;-74
2021/01/28 10:01:20;;;;;;;5.40;3.90;;;6.50;83.00;;;;;;5071422;28;20928;-71
2021/01/28 10:03:46;;;;;;;3.37;3.17;;;6.70;80.40;;;;;;5068035;28;20784;-72
2021/01/28 10:06:11;;;;;;;4.38;3.97;;;6.60;81.10;;;;;;5054721;28;20408;-72
2021/01/28 10:08:40;;;;;;;4.55;4.15;;;6.50;83.20;;;;;;5057770;28;20407;-72
2021/01/28 10:11:07;;;;;;;3.92;3.55;;;6.50;84.40;;;;;;5056920;28;20404;-72
2021/01/28 10:13:32;;;;;;;6.18;4.00;;;6.50;84.60;;;;;;5055234;28;20443;-73
2021/01/28 10:15:58;;;;;;;4.90;3.70;;;6.60;84.10;;;;;;5078247;28;20403;-72
2021/01/28 10:18:24;;;;;;;5.17;3.73;;;6.50;84.50;;;;;;5078424;28;20411;-74
2021/01/28 10:20:50;;;;;;;3.80;3.50;;;6.50;85.70;;;;;;5063053;28;20504;-73
2021/01/28 10:23:15;;;;;;;4.38;3.97;;;6.60;84.70;;;;;;5060221;28;20448;-74
2021/01/28 10:25:41;;;;;;;3.83;3.53;;;6.60;84.70;;;;;;5080005;28;20829;-73
2021/01/28 10:28:06;;;;;;;4.53;3.80;;;6.80;84.20;;;;;;5078749;28;20447;-72
2021/01/28 10:30:32;;;;;;;3.70;3.40;;;6.70;83.50;;;;;;5053347;28;20480;-73
2021/01/28 10:32:58;;;;;;;5.53;3.90;;;6.70;83.70;;;;;;5052152;28;20467;-72
2021/01/28 10:35:27;;;;;;;3.55;3.25;;;6.70;84.10;;;;;;5062553;28;20462;-72
2021/01/28 10:37:53;;;;;;;3.00;2.80;;;6.70;85.00;;;;;;5074827;28;20829;-74
2021/01/28 10:40:20;;;;;;;4.03;3.63;;;6.70;84.10;;;;;;5070997;28;20417;-71
2021/01/28 10:42:46;;;;;;;4.93;3.72;;;6.80;83.20;;;;;;5072138;28;20410;-73
2021/01/28 10:45:21;;;;;;;3.83;3.42;;;6.80;83.00;;;;;;5056332;28;20409;-72
2021/01/28 10:47:47;;;;;;;4.85;3.90;;;6.70;84.30;;;;;;5051646;28;20632;-72
2021/01/28 10:50:14;;;;;;;4.50;3.05;;;6.80;84.50;;;;;;5061931;28;20710;-72
2021/01/28 10:52:40;;;;;;;5.00;3.50;;;6.90;83.00;;;;;;5052049;28;20373;-73
2021/01/28 10:55:07;;;;;;;4.53;3.53;;;7.00;84.10;;;;;;5064788;28;20400;-73
2021/01/28 10:57:33;;;;;;;3.80;3.50;;;6.90;83.20;;;;;;5071119;28;20857;-73
2021/01/28 10:59:59;;;;;;;5.82;3.10;;;6.90;84.00;;;;;;5053012;28;20397;-73
2021/01/28 11:02:24;;;;;;;5.10;3.90;;;6.90;84.10;;;;;;5054182;28;20388;-73
2021/01/28 11:04:50;;;;;;;7.43;4.13;;;6.90;84.80;;;;;;5068437;28;20448;-72
2021/01/28 11:07:16;;;;;;;4.07;3.00;;;6.90;85.90;;;;;;5071199;28;20383;-72
2021/01/28 11:09:42;;;;;;;2.90;2.70;;;7.00;86.50;;;;;;5069341;28;20405;-74
2021/01/28 11:12:09;;;;;;;7.43;3.40;;;7.10;84.40;;;;;;5054975;28;20393;-75
2021/01/28 11:14:34;;;;;;;3.20;3.00;;;7.20;84.50;;;;;;5063184;28;20407;-74
2021/01/28 11:17:00;;;;;;;2.88;2.58;;;7.30;83.80;;;;;;5075797;28;20515;-74
2021/01/28 11:19:26;;;;;;;2.90;2.40;;;7.40;83.70;;;;;;5075325;28;20415;-73
2021/01/28 11:21:51;;;;;;;3.60;2.80;;;7.60;81.60;;;;;;5074831;28;20412;-72
2021/01/28 11:24:17;;;;;;;3.07;2.83;;;7.60;79.50;;;;;;5067952;28;20738;-72
2021/01/28 11:26:42;;;;;;;3.37;3.07;;;7.70;78.50;;;;;;5071678;28;20397;-75
2021/01/28 11:29:08;;;;;;;4.40;4.00;;;7.70;78.90;;;;;;5059871;28;20877;-73
2021/01/28 11:31:36;;;;;;;3.67;3.37;;;7.70;81.70;;;;;;5058391;28;20397;-72
2021/01/28 11:34:02;;;;;;;2.40;2.20;;;7.80;81.60;;;;;;5054924;28;20439;-72
2021/01/28 11:36:29;;;;;;;3.67;2.60;;;8.00;80.40;;;;;;5074107;28;20405;-73
2021/01/28 11:38:54;;;;;;;3.00;2.40;;;8.40;77.80;;;;;;5053971;28;20404;-72
2021/01/28 11:41:20;;;;;;;3.43;2.77;;;8.70;72.90;;;;;;5068154;28;20407;-74
2021/01/28 11:43:45;;;;;;;3.80;3.10;;;8.90;69.30;;;;;;5073069;28;20384;-73
2021/01/28 11:46:11;;;;;;;2.87;2.67;;;8.90;67.80;;;;;;5052262;28;20447;-72
2021/01/28 11:48:37;;;;;;;3.60;3.10;;;8.90;69.30;;;;;;5055457;28;20451;-73
2021/01/28 11:51:02;;;;;;;2.93;2.70;;;8.90;69.10;;;;;;5056315;28;20488;-73
2021/01/28 11:53:28;;;;;;;2.73;2.27;;;8.90;70.00;;;;;;5051092;28;20724;-73
2021/01/28 11:55:53;;;;;;;3.27;2.97;;;9.00;69.90;;;;;;5053635;28;20442;-72
2021/01/28 11:58:19;;;;;;;4.20;3.50;;;8.90;69.30;;;;;;5053283;28;20397;-74
2021/01/28 12:00:46;;;;;;;2.77;2.30;;;8.80;70.50;;;;;;5059878;28;20405;-73
2021/01/28 12:03:11;;;;;;;3.97;3.13;;;8.80;70.60;;;;;;5058017;28;20396;-71
2021/01/28 12:05:37;;;;;;;2.40;2.20;;;8.80;70.60;;;;;;5069343;28;20395;-73
2021/01/28 12:08:03;;;;;;;4.27;2.67;;;8.60;70.20;;;;;;5063253;28;20397;-74
2021/01/28 12:10:30;;;;;;;3.53;2.70;;;8.50;72.00;;;;;;5055617;28;20409;-72
2021/01/28 12:12:56;;;;;;;2.95;2.65;;;8.50;73.30;;;;;;5062995;28;20430;-72
2021/01/28 12:15:22;;;;;;;3.30;2.50;;;8.50;75.90;;;;;;5071768;28;20482;-73
2021/01/28 12:17:49;;;;;;;2.50;2.20;;;8.50;76.60;;;;;;5069287;28;20564;-71
2021/01/28 12:20:34;;;;;;;2.45;2.25;;;8.70;75.60;;;;;;5070003;28;20387;-72
2021/01/28 12:23:00;;;;;;;4.78;3.47;;;9.00;69.90;;;;;;5068068;28;20403;-73
2021/01/28 12:25:25;;;;;;;2.80;2.60;;;8.90;72.10;;;;;;5076219;28;20391;-73
2021/01/28 12:27:51;;;;;;;1.90;1.80;;;9.20;68.50;;;;;;5065791;28;20501;-75
2021/01/28 12:30:21;;;;;;;3.20;1.92;;;9.30;66.10;;;;;;5052972;28;20390;-73
2021/01/28 12:32:47;;;;;;;1.90;1.80;;;9.00;67.20;;;;;;5050778;28;20432;-74
2021/01/28 12:35:14;;;;;;;3.17;2.50;;;8.90;70.60;;;;;;5054768;28;20388;-72
2021/01/28 12:37:40;;;;;;;3.38;2.90;;;8.80;71.30;;;;;;5065331;28;20395;-73
2021/01/28 12:40:08;;;;;;;3.55;2.80;;;8.60;74.00;;;;;;5071793;28;20382;-72
2021/01/28 12:42:34;;;;;;;3.25;2.90;;;8.60;77.10;;;;;;5073156;28;20408;-74
2021/01/28 12:45:00;;;;;;;3.78;2.30;;;8.70;76.20;;;;;;5071014;28;20382;-73
2021/01/28 12:47:27;;;;;;;4.82;2.65;;;8.70;75.90;;;;;;5066197;28;20405;-72
2021/01/28 12:49:53;;;;;;;2.38;1.90;;;8.70;77.10;;;;;;5049859;28;20427;-74
2021/01/28 12:52:19;;;;;;;2.65;1.60;;;8.80;75.50;;;;;;5049135;28;20790;-73
2021/01/28 12:54:44;;;;;;;1.77;1.67;;;8.90;74.70;;;;;;5070066;28;20479;-74
2021/01/28 12:57:10;;;;;;;1.67;1.58;;;8.90;75.50;;;;;;5069522;28;20455;-72
2021/01/28 12:59:36;;;;;;;2.50;1.73;;;9.00;75.40;;;;;;5069068;28;20388;-72
2021/01/28 13:02:01;;;;;;;2.50;2.30;;;9.30;72.50;;;;;;5069916;28;20404;-72